メインページ
METAR-TAF:

METAR-TAF

空港 :

オールバニ, ニューヨーク, アメリカ合衆国

緯度: 42-44-53N, 経度: 073-48-06W, 海抜: 87m

現時点の気象観測

当レポートは14分前の13:51(UTC)に作成
西の風 15kt、最大23ktの突風を伴う
気温 6°C
湿度 52%
気圧 1003 hPa
視程: 16.1km
高度4100ftの雲はほとんどない
高度4800ftの雲は散在している
高度7500ftの曇り

METAR: KALB 151351Z 26015G23KT 10SM FEW041 SCT048 OVC075 06/M03 A2962 RMK AO2 PK WND 29031/1259 SLP031 OCNL BINOVC T00561028

時間: 09:05 (14:05 UTC)

予報

当レポートは2時間38分前の11:27(UTC)に作成
予報は15日の 12時(UTC)から 16日の 12時(UTC)まで有効
西の風 16kt、最大30ktの突風を伴う
視程: 10km
高度3500ftの千切れ雲あり
15日の 1500時(UTC)から
西の風 23kt、最大38ktの突風を伴う
視程: 10km
高度4000ftの千切れ雲あり
16日の 0000時(UTC)から
西の風 17kt、最大28ktの突風を伴う
視程: 10km
高度3000ftの雲は散在している
高度25000ftの雲は散在している
16日の 0700時(UTC)から
西/北西の風 8kt
視程: 10km
高度3000ftの雲は散在している
高度25000ftの雲は散在している
16日の 1100時(UTC)から
西の風 4kt
視程: 10km
高度10000ftの雲は散在している

TAF: KALB 151127Z 1512/1612 27016G30KT P6SM BKN035 FM151500 27023G38KT P6SM BKN040 FM160000 28017G28KT P6SM SCT030 SCT250 FM160700 29008KT P6SM SCT030 SCT250 FM161100 27004KT P6SM SCT100

4,000以上の空港の気象観測と天気予報(METAR報とTAF報)

利用可能な観測所は地図上に黄色い丸と赤い丸で示す。

丸の上にカーソルを重ねると観測所名を参照できる。

次にクリックすると気象観測と天気予報を参照できる。

マップの切り替え:黒色「×」印の緑ボタンをクリックして拡大、「-」印の緑ボタンをクリックして縮小、緑色の三角印をクリックして隣りの地図に切り替え


METAR-TAF: